sensor_id;sensor_type;location;lat;lon;timestamp;P1;durP1;ratioP1;P2;durP2;ratioP2
68256;SDS011;55069;51.568;4.656;2024-01-30T00:01:12;19.17;;;11.67;;
68256;SDS011;55069;51.568;4.656;2024-01-30T00:03:38;18.77;;;11.63;;
68256;SDS011;55069;51.568;4.656;2024-01-30T00:06:04;19.67;;;12.27;;
68256;SDS011;55069;51.568;4.656;2024-01-30T00:08:29;17.85;;;11.32;;
68256;SDS011;55069;51.568;4.656;2024-01-30T00:10:55;17.00;;;11.55;;
68256;SDS011;55069;51.568;4.656;2024-01-30T00:13:20;16.83;;;11.57;;
68256;SDS011;55069;51.568;4.656;2024-01-30T00:15:46;16.60;;;12.23;;
68256;SDS011;55069;51.568;4.656;2024-01-30T00:18:11;18.60;;;12.00;;
68256;SDS011;55069;51.568;4.656;2024-01-30T00:20:37;21.90;;;12.17;;
68256;SDS011;55069;51.568;4.656;2024-01-30T00:23:03;18.57;;;11.87;;
68256;SDS011;55069;51.568;4.656;2024-01-30T00:25:29;17.20;;;11.55;;
68256;SDS011;55069;51.568;4.656;2024-01-30T00:27:55;22.47;;;12.37;;
68256;SDS011;55069;51.568;4.656;2024-01-30T00:30:21;21.17;;;11.57;;
68256;SDS011;55069;51.568;4.656;2024-01-30T00:32:46;18.20;;;11.70;;
68256;SDS011;55069;51.568;4.656;2024-01-30T00:35:12;16.50;;;10.18;;
68256;SDS011;55069;51.568;4.656;2024-01-30T00:37:38;18.60;;;10.93;;
68256;SDS011;55069;51.568;4.656;2024-01-30T00:40:03;16.30;;;11.00;;
68256;SDS011;55069;51.568;4.656;2024-01-30T00:42:31;19.05;;;11.68;;
68256;SDS011;55069;51.568;4.656;2024-01-30T00:44:57;18.73;;;11.35;;
68256;SDS011;55069;51.568;4.656;2024-01-30T00:47:23;16.23;;;10.73;;
68256;SDS011;55069;51.568;4.656;2024-01-30T00:49:48;14.85;;;10.20;;
68256;SDS011;55069;51.568;4.656;2024-01-30T00:52:14;17.02;;;10.45;;
68256;SDS011;55069;51.568;4.656;2024-01-30T00:54:40;18.43;;;9.67;;
68256;SDS011;55069;51.568;4.656;2024-01-30T00:57:06;19.45;;;10.25;;
68256;SDS011;55069;51.568;4.656;2024-01-30T00:59:32;13.60;;;8.93;;
68256;SDS011;55069;51.568;4.656;2024-01-30T01:01:58;21.33;;;10.00;;
68256;SDS011;55069;51.568;4.656;2024-01-30T01:04:23;16.13;;;9.50;;
68256;SDS011;55069;51.568;4.656;2024-01-30T01:06:49;16.07;;;10.13;;
68256;SDS011;55069;51.568;4.656;2024-01-30T01:09:15;17.13;;;9.80;;
68256;SDS011;55069;51.568;4.656;2024-01-30T01:11:40;14.13;;;9.73;;
68256;SDS011;55069;51.568;4.656;2024-01-30T01:14:06;13.73;;;9.23;;
68256;SDS011;55069;51.568;4.656;2024-01-30T01:16:31;15.43;;;9.70;;
68256;SDS011;55069;51.568;4.656;2024-01-30T01:18:58;16.10;;;9.75;;
68256;SDS011;55069;51.568;4.656;2024-01-30T01:21:25;16.40;;;9.25;;
68256;SDS011;55069;51.568;4.656;2024-01-30T01:23:51;15.23;;;9.47;;
68256;SDS011;55069;51.568;4.656;2024-01-30T01:26:16;13.90;;;9.27;;
68256;SDS011;55069;51.568;4.656;2024-01-30T01:28:42;15.97;;;10.03;;
68256;SDS011;55069;51.568;4.656;2024-01-30T01:31:07;13.10;;;9.43;;
68256;SDS011;55069;51.568;4.656;2024-01-30T01:33:33;15.88;;;10.27;;
68256;SDS011;55069;51.568;4.656;2024-01-30T01:35:59;16.70;;;9.40;;
68256;SDS011;55069;51.568;4.656;2024-01-30T01:38:27;16.80;;;10.00;;
68256;SDS011;55069;51.568;4.656;2024-01-30T01:40:53;15.57;;;9.60;;
68256;SDS011;55069;51.568;4.656;2024-01-30T01:43:19;11.30;;;8.60;;
68256;SDS011;55069;51.568;4.656;2024-01-30T01:45:44;14.23;;;9.13;;
68256;SDS011;55069;51.568;4.656;2024-01-30T01:48:10;16.33;;;9.40;;
68256;SDS011;55069;51.568;4.656;2024-01-30T01:50:37;16.63;;;9.15;;
68256;SDS011;55069;51.568;4.656;2024-01-30T01:53:03;15.65;;;9.15;;
68256;SDS011;55069;51.568;4.656;2024-01-30T01:55:32;15.30;;;9.38;;
68256;SDS011;55069;51.568;4.656;2024-01-30T01:57:58;15.10;;;9.73;;
68256;SDS011;55069;51.568;4.656;2024-01-30T02:00:24;16.63;;;9.77;;
68256;SDS011;55069;51.568;4.656;2024-01-30T02:02:49;16.40;;;9.77;;
68256;SDS011;55069;51.568;4.656;2024-01-30T02:05:15;17.42;;;9.63;;
68256;SDS011;55069;51.568;4.656;2024-01-30T02:07:42;16.92;;;9.65;;
68256;SDS011;55069;51.568;4.656;2024-01-30T02:10:08;16.43;;;9.30;;
68256;SDS011;55069;51.568;4.656;2024-01-30T02:12:37;13.48;;;9.13;;
68256;SDS011;55069;51.568;4.656;2024-01-30T02:15:03;13.30;;;8.88;;
68256;SDS011;55069;51.568;4.656;2024-01-30T02:17:30;16.42;;;10.10;;
68256;SDS011;55069;51.568;4.656;2024-01-30T02:19:56;17.40;;;10.82;;
68256;SDS011;55069;51.568;4.656;2024-01-30T02:22:22;13.35;;;9.73;;
68256;SDS011;55069;51.568;4.656;2024-01-30T02:24:47;14.88;;;9.90;;
68256;SDS011;55069;51.568;4.656;2024-01-30T02:27:13;15.03;;;9.53;;
68256;SDS011;55069;51.568;4.656;2024-01-30T02:29:38;14.73;;;9.23;;
68256;SDS011;55069;51.568;4.656;2024-01-30T02:32:04;16.45;;;10.02;;
68256;SDS011;55069;51.568;4.656;2024-01-30T02:34:30;17.10;;;9.40;;
68256;SDS011;55069;51.568;4.656;2024-01-30T02:36:56;16.63;;;9.27;;
68256;SDS011;55069;51.568;4.656;2024-01-30T02:39:21;14.07;;;9.30;;
68256;SDS011;55069;51.568;4.656;2024-01-30T02:41:47;17.03;;;9.63;;
68256;SDS011;55069;51.568;4.656;2024-01-30T02:44:12;15.37;;;9.50;;
68256;SDS011;55069;51.568;4.656;2024-01-30T02:46:38;15.52;;;9.20;;
68256;SDS011;55069;51.568;4.656;2024-01-30T02:49:03;14.80;;;8.90;;
68256;SDS011;55069;51.568;4.656;2024-01-30T02:51:29;12.87;;;9.43;;
68256;SDS011;55069;51.568;4.656;2024-01-30T02:53:54;15.33;;;9.10;;
68256;SDS011;55069;51.568;4.656;2024-01-30T02:56:20;14.90;;;9.45;;
68256;SDS011;55069;51.568;4.656;2024-01-30T02:58:46;13.70;;;8.80;;
68256;SDS011;55069;51.568;4.656;2024-01-30T03:01:11;14.90;;;9.47;;
68256;SDS011;55069;51.568;4.656;2024-01-30T03:03:37;14.02;;;8.95;;
68256;SDS011;55069;51.568;4.656;2024-01-30T03:06:02;16.67;;;9.13;;
68256;SDS011;55069;51.568;4.656;2024-01-30T03:08:28;18.30;;;9.10;;
68256;SDS011;55069;51.568;4.656;2024-01-30T03:10:53;15.68;;;8.82;;
68256;SDS011;55069;51.568;4.656;2024-01-30T03:13:19;16.53;;;8.63;;
68256;SDS011;55069;51.568;4.656;2024-01-30T03:15:45;14.02;;;9.13;;
68256;SDS011;55069;51.568;4.656;2024-01-30T03:18:10;15.20;;;8.83;;
68256;SDS011;55069;51.568;4.656;2024-01-30T03:20:36;13.70;;;8.63;;
68256;SDS011;55069;51.568;4.656;2024-01-30T03:23:01;16.40;;;8.57;;
68256;SDS011;55069;51.568;4.656;2024-01-30T03:25:27;16.25;;;8.75;;
68256;SDS011;55069;51.568;4.656;2024-01-30T03:27:53;18.40;;;9.37;;
68256;SDS011;55069;51.568;4.656;2024-01-30T03:30:18;15.43;;;8.48;;
68256;SDS011;55069;51.568;4.656;2024-01-30T03:32:44;16.43;;;9.13;;
68256;SDS011;55069;51.568;4.656;2024-01-30T03:35:09;12.10;;;8.70;;
68256;SDS011;55069;51.568;4.656;2024-01-30T03:37:35;14.63;;;9.20;;
68256;SDS011;55069;51.568;4.656;2024-01-30T03:40:01;15.50;;;8.88;;
68256;SDS011;55069;51.568;4.656;2024-01-30T03:42:27;16.50;;;8.68;;
68256;SDS011;55069;51.568;4.656;2024-01-30T03:44:53;15.37;;;8.73;;
68256;SDS011;55069;51.568;4.656;2024-01-30T03:47:20;13.60;;;8.23;;
68256;SDS011;55069;51.568;4.656;2024-01-30T03:49:46;15.70;;;8.87;;
68256;SDS011;55069;51.568;4.656;2024-01-30T03:52:12;14.98;;;8.55;;
68256;SDS011;55069;51.568;4.656;2024-01-30T03:54:37;11.17;;;7.70;;
68256;SDS011;55069;51.568;4.656;2024-01-30T03:57:03;12.02;;;8.73;;
68256;SDS011;55069;51.568;4.656;2024-01-30T03:59:28;14.17;;;8.53;;
68256;SDS011;55069;51.568;4.656;2024-01-30T04:01:54;13.50;;;8.77;;
68256;SDS011;55069;51.568;4.656;2024-01-30T04:04:20;16.13;;;9.10;;
68256;SDS011;55069;51.568;4.656;2024-01-30T04:06:46;15.98;;;8.63;;
68256;SDS011;55069;51.568;4.656;2024-01-30T04:09:12;18.42;;;8.77;;
68256;SDS011;55069;51.568;4.656;2024-01-30T04:11:41;16.35;;;8.30;;
68256;SDS011;55069;51.568;4.656;2024-01-30T04:14:07;13.05;;;8.00;;
68256;SDS011;55069;51.568;4.656;2024-01-30T04:16:33;14.88;;;8.90;;
68256;SDS011;55069;51.568;4.656;2024-01-30T04:18:59;13.87;;;8.33;;
68256;SDS011;55069;51.568;4.656;2024-01-30T04:21:24;15.80;;;8.35;;
68256;SDS011;55069;51.568;4.656;2024-01-30T04:23:50;13.70;;;8.43;;
68256;SDS011;55069;51.568;4.656;2024-01-30T04:26:16;19.20;;;8.77;;
68256;SDS011;55069;51.568;4.656;2024-01-30T04:28:44;13.53;;;8.17;;
68256;SDS011;55069;51.568;4.656;2024-01-30T04:31:10;13.95;;;8.38;;
68256;SDS011;55069;51.568;4.656;2024-01-30T04:33:35;15.27;;;9.10;;
68256;SDS011;55069;51.568;4.656;2024-01-30T04:36:01;14.80;;;7.97;;
68256;SDS011;55069;51.568;4.656;2024-01-30T04:38:27;12.20;;;8.47;;
68256;SDS011;55069;51.568;4.656;2024-01-30T04:40:52;13.30;;;8.25;;
68256;SDS011;55069;51.568;4.656;2024-01-30T04:43:18;15.52;;;8.82;;
68256;SDS011;55069;51.568;4.656;2024-01-30T04:45:44;17.00;;;9.07;;
68256;SDS011;55069;51.568;4.656;2024-01-30T04:48:09;18.70;;;8.55;;
68256;SDS011;55069;51.568;4.656;2024-01-30T04:50:35;13.10;;;8.70;;
68256;SDS011;55069;51.568;4.656;2024-01-30T04:53:01;12.38;;;8.35;;
68256;SDS011;55069;51.568;4.656;2024-01-30T04:55:27;11.43;;;7.90;;
68256;SDS011;55069;51.568;4.656;2024-01-30T04:57:52;14.70;;;8.60;;
68256;SDS011;55069;51.568;4.656;2024-01-30T05:00:18;14.67;;;7.80;;
68256;SDS011;55069;51.568;4.656;2024-01-30T05:02:43;15.07;;;8.30;;
68256;SDS011;55069;51.568;4.656;2024-01-30T05:05:09;14.35;;;8.35;;
68256;SDS011;55069;51.568;4.656;2024-01-30T05:07:34;17.87;;;9.03;;
68256;SDS011;55069;51.568;4.656;2024-01-30T05:10:00;14.87;;;8.70;;
68256;SDS011;55069;51.568;4.656;2024-01-30T05:12:26;13.02;;;8.35;;
68256;SDS011;55069;51.568;4.656;2024-01-30T05:14:51;12.23;;;8.32;;
68256;SDS011;55069;51.568;4.656;2024-01-30T05:17:17;13.73;;;8.27;;
68256;SDS011;55069;51.568;4.656;2024-01-30T05:19:43;14.82;;;8.70;;
68256;SDS011;55069;51.568;4.656;2024-01-30T05:22:09;12.60;;;7.90;;
68256;SDS011;55069;51.568;4.656;2024-01-30T05:24:35;16.60;;;8.60;;
68256;SDS011;55069;51.568;4.656;2024-01-30T05:27:01;11.55;;;7.82;;
68256;SDS011;55069;51.568;4.656;2024-01-30T05:29:27;14.03;;;8.10;;
68256;SDS011;55069;51.568;4.656;2024-01-30T05:31:53;17.13;;;8.32;;
68256;SDS011;55069;51.568;4.656;2024-01-30T05:34:18;15.53;;;8.50;;
68256;SDS011;55069;51.568;4.656;2024-01-30T05:36:44;13.43;;;7.43;;
68256;SDS011;55069;51.568;4.656;2024-01-30T05:39:09;14.90;;;7.80;;
68256;SDS011;55069;51.568;4.656;2024-01-30T05:41:35;14.23;;;7.90;;
68256;SDS011;55069;51.568;4.656;2024-01-30T05:44:01;16.47;;;8.50;;
68256;SDS011;55069;51.568;4.656;2024-01-30T05:46:26;20.40;;;8.65;;
68256;SDS011;55069;51.568;4.656;2024-01-30T05:48:52;14.60;;;9.13;;
68256;SDS011;55069;51.568;4.656;2024-01-30T05:51:18;15.60;;;9.98;;
68256;SDS011;55069;51.568;4.656;2024-01-30T05:53:43;15.90;;;8.80;;
68256;SDS011;55069;51.568;4.656;2024-01-30T05:56:09;15.20;;;7.60;;
68256;SDS011;55069;51.568;4.656;2024-01-30T05:58:34;16.60;;;8.55;;
68256;SDS011;55069;51.568;4.656;2024-01-30T06:01:00;17.03;;;8.20;;
68256;SDS011;55069;51.568;4.656;2024-01-30T06:03:25;13.97;;;8.43;;
68256;SDS011;55069;51.568;4.656;2024-01-30T06:05:51;15.70;;;8.63;;
68256;SDS011;55069;51.568;4.656;2024-01-30T06:08:17;14.63;;;8.18;;
68256;SDS011;55069;51.568;4.656;2024-01-30T06:10:43;14.70;;;7.87;;
68256;SDS011;55069;51.568;4.656;2024-01-30T06:13:08;15.30;;;8.02;;
68256;SDS011;55069;51.568;4.656;2024-01-30T06:15:34;14.73;;;7.87;;
68256;SDS011;55069;51.568;4.656;2024-01-30T06:17:59;14.53;;;8.60;;
68256;SDS011;55069;51.568;4.656;2024-01-30T06:20:25;16.67;;;8.02;;
68256;SDS011;55069;51.568;4.656;2024-01-30T06:22:50;14.20;;;8.03;;
68256;SDS011;55069;51.568;4.656;2024-01-30T06:25:16;13.57;;;7.93;;
68256;SDS011;55069;51.568;4.656;2024-01-30T06:27:42;15.45;;;8.48;;
68256;SDS011;55069;51.568;4.656;2024-01-30T06:30:08;18.55;;;8.35;;
68256;SDS011;55069;51.568;4.656;2024-01-30T06:32:35;13.23;;;7.60;;
68256;SDS011;55069;51.568;4.656;2024-01-30T06:35:01;16.15;;;8.70;;
68256;SDS011;55069;51.568;4.656;2024-01-30T06:37:27;14.82;;;8.48;;
68256;SDS011;55069;51.568;4.656;2024-01-30T06:39:52;12.63;;;8.30;;
68256;SDS011;55069;51.568;4.656;2024-01-30T06:42:18;17.30;;;8.55;;
68256;SDS011;55069;51.568;4.656;2024-01-30T06:44:44;16.43;;;9.30;;
68256;SDS011;55069;51.568;4.656;2024-01-30T06:47:10;12.88;;;8.25;;
68256;SDS011;55069;51.568;4.656;2024-01-30T06:49:35;14.52;;;8.15;;
68256;SDS011;55069;51.568;4.656;2024-01-30T06:52:06;14.63;;;8.57;;
68256;SDS011;55069;51.568;4.656;2024-01-30T06:54:31;22.10;;;8.82;;
68256;SDS011;55069;51.568;4.656;2024-01-30T06:56:58;14.05;;;7.88;;
68256;SDS011;55069;51.568;4.656;2024-01-30T06:59:23;15.63;;;8.43;;
68256;SDS011;55069;51.568;4.656;2024-01-30T07:01:49;15.53;;;7.43;;
68256;SDS011;55069;51.568;4.656;2024-01-30T07:04:15;18.57;;;7.60;;
68256;SDS011;55069;51.568;4.656;2024-01-30T07:06:41;14.73;;;8.23;;
68256;SDS011;55069;51.568;4.656;2024-01-30T07:09:06;15.60;;;7.43;;
68256;SDS011;55069;51.568;4.656;2024-01-30T07:11:32;22.00;;;8.60;;
68256;SDS011;55069;51.568;4.656;2024-01-30T07:13:57;15.93;;;8.43;;
68256;SDS011;55069;51.568;4.656;2024-01-30T07:16:23;13.57;;;7.57;;
68256;SDS011;55069;51.568;4.656;2024-01-30T07:18:49;17.47;;;8.27;;
68256;SDS011;55069;51.568;4.656;2024-01-30T07:21:15;13.75;;;8.23;;
68256;SDS011;55069;51.568;4.656;2024-01-30T07:23:40;16.40;;;8.17;;
68256;SDS011;55069;51.568;4.656;2024-01-30T07:26:07;13.10;;;7.60;;
68256;SDS011;55069;51.568;4.656;2024-01-30T07:28:33;17.97;;;8.10;;
68256;SDS011;55069;51.568;4.656;2024-01-30T07:30:59;14.60;;;8.23;;
68256;SDS011;55069;51.568;4.656;2024-01-30T07:33:25;15.00;;;7.90;;
68256;SDS011;55069;51.568;4.656;2024-01-30T07:35:54;14.17;;;8.43;;
68256;SDS011;55069;51.568;4.656;2024-01-30T07:38:20;16.63;;;8.32;;
68256;SDS011;55069;51.568;4.656;2024-01-30T07:40:45;17.07;;;8.43;;
68256;SDS011;55069;51.568;4.656;2024-01-30T07:43:11;14.85;;;7.90;;
68256;SDS011;55069;51.568;4.656;2024-01-30T07:45:37;16.47;;;8.57;;
68256;SDS011;55069;51.568;4.656;2024-01-30T07:48:04;16.15;;;8.60;;
68256;SDS011;55069;51.568;4.656;2024-01-30T07:50:30;14.07;;;7.90;;
68256;SDS011;55069;51.568;4.656;2024-01-30T07:52:56;14.37;;;7.57;;
68256;SDS011;55069;51.568;4.656;2024-01-30T07:55:22;18.40;;;8.27;;
68256;SDS011;55069;51.568;4.656;2024-01-30T07:57:54;13.45;;;7.47;;
68256;SDS011;55069;51.568;4.656;2024-01-30T08:00:20;17.02;;;8.32;;
68256;SDS011;55069;51.568;4.656;2024-01-30T08:02:52;21.10;;;7.73;;
68256;SDS011;55069;51.568;4.656;2024-01-30T08:05:21;14.38;;;7.43;;
68256;SDS011;55069;51.568;4.656;2024-01-30T08:07:47;16.65;;;7.80;;
68256;SDS011;55069;51.568;4.656;2024-01-30T08:10:13;13.38;;;7.63;;
68256;SDS011;55069;51.568;4.656;2024-01-30T08:12:39;14.27;;;7.90;;
68256;SDS011;55069;51.568;4.656;2024-01-30T08:15:05;14.80;;;7.50;;
68256;SDS011;55069;51.568;4.656;2024-01-30T08:17:31;15.50;;;7.28;;
68256;SDS011;55069;51.568;4.656;2024-01-30T08:19:56;17.23;;;8.30;;
68256;SDS011;55069;51.568;4.656;2024-01-30T08:22:22;16.73;;;7.37;;
68256;SDS011;55069;51.568;4.656;2024-01-30T08:24:47;15.70;;;7.60;;
68256;SDS011;55069;51.568;4.656;2024-01-30T08:27:13;15.32;;;8.02;;
68256;SDS011;55069;51.568;4.656;2024-01-30T08:29:38;19.93;;;7.83;;
68256;SDS011;55069;51.568;4.656;2024-01-30T08:32:05;14.30;;;7.67;;
68256;SDS011;55069;51.568;4.656;2024-01-30T08:34:31;12.90;;;7.95;;
68256;SDS011;55069;51.568;4.656;2024-01-30T08:36:57;13.93;;;7.10;;
68256;SDS011;55069;51.568;4.656;2024-01-30T08:39:22;19.02;;;7.38;;
68256;SDS011;55069;51.568;4.656;2024-01-30T08:41:48;18.20;;;7.60;;
68256;SDS011;55069;51.568;4.656;2024-01-30T08:44:14;13.93;;;7.32;;
68256;SDS011;55069;51.568;4.656;2024-01-30T08:46:39;13.30;;;7.27;;
68256;SDS011;55069;51.568;4.656;2024-01-30T08:49:05;13.87;;;8.00;;
68256;SDS011;55069;51.568;4.656;2024-01-30T08:51:30;17.00;;;7.70;;
68256;SDS011;55069;51.568;4.656;2024-01-30T08:53:56;19.73;;;8.80;;
68256;SDS011;55069;51.568;4.656;2024-01-30T08:56:22;13.90;;;7.57;;
68256;SDS011;55069;51.568;4.656;2024-01-30T08:58:47;13.85;;;7.72;;
68256;SDS011;55069;51.568;4.656;2024-01-30T09:01:13;16.57;;;8.07;;
68256;SDS011;55069;51.568;4.656;2024-01-30T09:03:39;12.20;;;7.63;;
68256;SDS011;55069;51.568;4.656;2024-01-30T09:06:09;15.93;;;7.88;;
68256;SDS011;55069;51.568;4.656;2024-01-30T09:08:35;19.63;;;8.35;;
68256;SDS011;55069;51.568;4.656;2024-01-30T09:11:08;18.07;;;7.83;;
68256;SDS011;55069;51.568;4.656;2024-01-30T09:13:35;15.20;;;7.97;;
68256;SDS011;55069;51.568;4.656;2024-01-30T09:16:00;15.87;;;8.13;;
68256;SDS011;55069;51.568;4.656;2024-01-30T09:18:26;15.60;;;7.60;;
68256;SDS011;55069;51.568;4.656;2024-01-30T09:20:51;14.57;;;8.30;;
68256;SDS011;55069;51.568;4.656;2024-01-30T09:23:17;18.27;;;8.60;;
68256;SDS011;55069;51.568;4.656;2024-01-30T09:25:44;20.98;;;8.73;;
68256;SDS011;55069;51.568;4.656;2024-01-30T09:28:09;17.80;;;8.37;;
68256;SDS011;55069;51.568;4.656;2024-01-30T09:30:35;18.27;;;8.87;;
68256;SDS011;55069;51.568;4.656;2024-01-30T09:33:00;15.82;;;8.02;;
68256;SDS011;55069;51.568;4.656;2024-01-30T09:35:26;18.73;;;7.67;;
68256;SDS011;55069;51.568;4.656;2024-01-30T09:37:51;12.40;;;8.40;;
68256;SDS011;55069;51.568;4.656;2024-01-30T09:40:17;14.85;;;8.80;;
68256;SDS011;55069;51.568;4.656;2024-01-30T09:42:46;15.70;;;8.32;;
68256;SDS011;55069;51.568;4.656;2024-01-30T09:45:13;20.23;;;8.98;;
68256;SDS011;55069;51.568;4.656;2024-01-30T09:47:40;15.10;;;9.23;;
68256;SDS011;55069;51.568;4.656;2024-01-30T09:50:13;16.80;;;8.05;;
68256;SDS011;55069;51.568;4.656;2024-01-30T09:52:39;15.60;;;8.63;;
68256;SDS011;55069;51.568;4.656;2024-01-30T09:55:06;16.25;;;8.38;;
68256;SDS011;55069;51.568;4.656;2024-01-30T09:57:32;13.83;;;8.80;;
68256;SDS011;55069;51.568;4.656;2024-01-30T09:59:58;16.52;;;8.45;;
68256;SDS011;55069;51.568;4.656;2024-01-30T10:02:23;18.25;;;8.38;;
68256;SDS011;55069;51.568;4.656;2024-01-30T10:04:49;16.87;;;8.60;;
68256;SDS011;55069;51.568;4.656;2024-01-30T10:07:19;16.52;;;9.95;;
68256;SDS011;55069;51.568;4.656;2024-01-30T10:09:46;17.33;;;7.87;;
68256;SDS011;55069;51.568;4.656;2024-01-30T10:12:12;13.88;;;7.88;;
68256;SDS011;55069;51.568;4.656;2024-01-30T10:14:41;17.08;;;8.30;;
68256;SDS011;55069;51.568;4.656;2024-01-30T10:17:10;13.73;;;7.75;;
68256;SDS011;55069;51.568;4.656;2024-01-30T10:19:40;13.07;;;8.27;;
68256;SDS011;55069;51.568;4.656;2024-01-30T10:22:06;11.25;;;6.93;;
68256;SDS011;55069;51.568;4.656;2024-01-30T10:24:33;12.82;;;7.47;;
68256;SDS011;55069;51.568;4.656;2024-01-30T10:26:59;8.93;;;5.20;;
68256;SDS011;55069;51.568;4.656;2024-01-30T10:29:24;10.70;;;5.53;;
68256;SDS011;55069;51.568;4.656;2024-01-30T10:32:03;11.18;;;5.50;;
68256;SDS011;55069;51.568;4.656;2024-01-30T10:34:30;12.13;;;5.50;;
68256;SDS011;55069;51.568;4.656;2024-01-30T10:37:09;15.00;;;6.30;;
68256;SDS011;55069;51.568;4.656;2024-01-30T10:39:40;11.27;;;5.88;;
68256;SDS011;55069;51.568;4.656;2024-01-30T10:42:10;11.32;;;5.38;;
68256;SDS011;55069;51.568;4.656;2024-01-30T10:44:43;9.77;;;4.60;;
68256;SDS011;55069;51.568;4.656;2024-01-30T10:47:19;13.63;;;3.17;;
68256;SDS011;55069;51.568;4.656;2024-01-30T10:49:49;9.23;;;3.30;;
68256;SDS011;55069;51.568;4.656;2024-01-30T10:52:16;6.20;;;2.80;;
68256;SDS011;55069;51.568;4.656;2024-01-30T10:54:43;9.20;;;2.42;;
68256;SDS011;55069;51.568;4.656;2024-01-30T10:57:10;6.95;;;1.73;;
68256;SDS011;55069;51.568;4.656;2024-01-30T10:59:36;4.32;;;1.58;;
68256;SDS011;55069;51.568;4.656;2024-01-30T11:02:02;3.95;;;1.40;;
68256;SDS011;55069;51.568;4.656;2024-01-30T11:04:35;5.93;;;1.77;;
68256;SDS011;55069;51.568;4.656;2024-01-30T11:07:18;6.70;;;1.63;;
68256;SDS011;55069;51.568;4.656;2024-01-30T11:12:23;6.05;;;1.10;;
68256;SDS011;55069;51.568;4.656;2024-01-30T11:14:50;7.10;;;1.48;;
68256;SDS011;55069;51.568;4.656;2024-01-30T11:17:44;5.10;;;1.30;;
68256;SDS011;55069;51.568;4.656;2024-01-30T11:20:25;9.10;;;1.37;;
68256;SDS011;55069;51.568;4.656;2024-01-30T11:22:53;7.25;;;1.30;;
68256;SDS011;55069;51.568;4.656;2024-01-30T11:25:21;6.00;;;1.35;;
68256;SDS011;55069;51.568;4.656;2024-01-30T11:27:49;6.55;;;1.45;;
68256;SDS011;55069;51.568;4.656;2024-01-30T11:30:29;5.70;;;1.25;;
68256;SDS011;55069;51.568;4.656;2024-01-30T11:35:34;3.35;;;0.90;;
68256;SDS011;55069;51.568;4.656;2024-01-30T11:38:01;4.70;;;0.80;;
68256;SDS011;55069;51.568;4.656;2024-01-30T11:40:28;4.32;;;1.00;;
68256;SDS011;55069;51.568;4.656;2024-01-30T11:42:55;2.67;;;0.60;;
68256;SDS011;55069;51.568;4.656;2024-01-30T11:45:21;2.47;;;0.70;;
68256;SDS011;55069;51.568;4.656;2024-01-30T11:47:47;2.05;;;0.47;;
68256;SDS011;55069;51.568;4.656;2024-01-30T11:50:13;3.57;;;0.53;;
68256;SDS011;55069;51.568;4.656;2024-01-30T11:52:39;3.20;;;0.43;;
68256;SDS011;55069;51.568;4.656;2024-01-30T11:55:05;4.03;;;0.43;;
68256;SDS011;55069;51.568;4.656;2024-01-30T11:57:33;5.97;;;0.60;;
68256;SDS011;55069;51.568;4.656;2024-01-30T12:00:00;2.65;;;0.60;;
68256;SDS011;55069;51.568;4.656;2024-01-30T12:02:29;3.47;;;0.40;;
68256;SDS011;55069;51.568;4.656;2024-01-30T12:04:55;4.90;;;0.85;;
68256;SDS011;55069;51.568;4.656;2024-01-30T12:07:20;1.25;;;0.60;;
68256;SDS011;55069;51.568;4.656;2024-01-30T12:09:53;2.60;;;0.50;;
68256;SDS011;55069;51.568;4.656;2024-01-30T12:12:21;5.97;;;0.70;;
68256;SDS011;55069;51.568;4.656;2024-01-30T12:14:48;4.20;;;0.45;;
68256;SDS011;55069;51.568;4.656;2024-01-30T12:17:23;4.10;;;0.80;;
68256;SDS011;55069;51.568;4.656;2024-01-30T12:19:49;3.75;;;0.80;;
68256;SDS011;55069;51.568;4.656;2024-01-30T12:22:15;6.57;;;0.57;;
68256;SDS011;55069;51.568;4.656;2024-01-30T12:24:41;5.22;;;0.55;;
68256;SDS011;55069;51.568;4.656;2024-01-30T12:27:06;6.60;;;0.90;;
68256;SDS011;55069;51.568;4.656;2024-01-30T12:29:32;6.13;;;0.50;;
68256;SDS011;55069;51.568;4.656;2024-01-30T12:31:58;3.35;;;0.60;;
68256;SDS011;55069;51.568;4.656;2024-01-30T12:34:25;2.28;;;0.50;;
68256;SDS011;55069;51.568;4.656;2024-01-30T12:36:50;2.50;;;0.80;;
68256;SDS011;55069;51.568;4.656;2024-01-30T12:39:16;6.53;;;2.25;;
68256;SDS011;55069;51.568;4.656;2024-01-30T12:41:42;12.73;;;2.87;;
68256;SDS011;55069;51.568;4.656;2024-01-30T12:44:07;9.38;;;2.22;;
68256;SDS011;55069;51.568;4.656;2024-01-30T12:46:36;11.17;;;2.63;;
68256;SDS011;55069;51.568;4.656;2024-01-30T12:49:02;12.82;;;2.47;;
68256;SDS011;55069;51.568;4.656;2024-01-30T12:51:28;8.30;;;2.53;;
68256;SDS011;55069;51.568;4.656;2024-01-30T12:53:53;10.93;;;2.63;;
68256;SDS011;55069;51.568;4.656;2024-01-30T12:56:19;6.50;;;2.38;;
68256;SDS011;55069;51.568;4.656;2024-01-30T12:58:45;11.47;;;2.90;;
68256;SDS011;55069;51.568;4.656;2024-01-30T13:01:10;10.10;;;3.22;;
68256;SDS011;55069;51.568;4.656;2024-01-30T13:03:36;10.77;;;2.10;;
68256;SDS011;55069;51.568;4.656;2024-01-30T13:06:02;6.80;;;1.63;;
68256;SDS011;55069;51.568;4.656;2024-01-30T13:08:28;17.70;;;2.60;;
68256;SDS011;55069;51.568;4.656;2024-01-30T13:10:53;7.77;;;2.90;;
68256;SDS011;55069;51.568;4.656;2024-01-30T13:13:19;11.82;;;2.72;;
68256;SDS011;55069;51.568;4.656;2024-01-30T13:15:44;8.83;;;2.80;;
68256;SDS011;55069;51.568;4.656;2024-01-30T13:18:10;10.27;;;2.67;;
68256;SDS011;55069;51.568;4.656;2024-01-30T13:20:35;10.77;;;3.00;;
68256;SDS011;55069;51.568;4.656;2024-01-30T13:23:01;10.05;;;2.90;;
68256;SDS011;55069;51.568;4.656;2024-01-30T13:25:26;14.17;;;3.33;;
68256;SDS011;55069;51.568;4.656;2024-01-30T13:27:52;12.13;;;2.47;;
68256;SDS011;55069;51.568;4.656;2024-01-30T13:30:17;12.38;;;2.42;;
68256;SDS011;55069;51.568;4.656;2024-01-30T13:32:43;10.83;;;2.80;;
68256;SDS011;55069;51.568;4.656;2024-01-30T13:35:09;10.02;;;2.80;;
68256;SDS011;55069;51.568;4.656;2024-01-30T13:37:35;10.53;;;2.63;;
68256;SDS011;55069;51.568;4.656;2024-01-30T13:40:02;9.63;;;3.05;;
68256;SDS011;55069;51.568;4.656;2024-01-30T13:42:32;9.15;;;2.88;;
68256;SDS011;55069;51.568;4.656;2024-01-30T13:44:57;5.63;;;2.67;;
68256;SDS011;55069;51.568;4.656;2024-01-30T13:47:23;7.53;;;2.20;;
68256;SDS011;55069;51.568;4.656;2024-01-30T13:49:48;8.67;;;3.00;;
68256;SDS011;55069;51.568;4.656;2024-01-30T13:52:14;8.02;;;3.00;;
68256;SDS011;55069;51.568;4.656;2024-01-30T13:54:40;10.75;;;3.00;;
68256;SDS011;55069;51.568;4.656;2024-01-30T13:57:05;6.27;;;3.23;;
68256;SDS011;55069;51.568;4.656;2024-01-30T13:59:32;11.43;;;3.17;;
68256;SDS011;55069;51.568;4.656;2024-01-30T14:01:58;7.40;;;3.43;;
68256;SDS011;55069;51.568;4.656;2024-01-30T14:04:23;5.33;;;2.77;;
68256;SDS011;55069;51.568;4.656;2024-01-30T14:06:49;8.43;;;3.05;;
68256;SDS011;55069;51.568;4.656;2024-01-30T14:09:15;11.17;;;3.27;;
68256;SDS011;55069;51.568;4.656;2024-01-30T14:11:41;7.60;;;2.83;;
68256;SDS011;55069;51.568;4.656;2024-01-30T14:14:08;9.20;;;2.40;;
68256;SDS011;55069;51.568;4.656;2024-01-30T14:16:34;6.45;;;3.10;;
68256;SDS011;55069;51.568;4.656;2024-01-30T14:19:00;9.80;;;3.05;;
68256;SDS011;55069;51.568;4.656;2024-01-30T14:21:25;6.93;;;3.08;;
68256;SDS011;55069;51.568;4.656;2024-01-30T14:23:51;7.80;;;3.70;;
68256;SDS011;55069;51.568;4.656;2024-01-30T14:26:16;8.10;;;3.77;;
68256;SDS011;55069;51.568;4.656;2024-01-30T14:28:42;8.30;;;3.90;;
68256;SDS011;55069;51.568;4.656;2024-01-30T14:31:08;7.95;;;4.07;;
68256;SDS011;55069;51.568;4.656;2024-01-30T14:33:34;10.82;;;4.50;;
68256;SDS011;55069;51.568;4.656;2024-01-30T14:35:59;6.73;;;4.33;;